x

9410840 - Santa Monica Pier (icac1) Weather Station

6:54 - Tue 4th Aug 2015 All times are PDT. -7 hours from GMT.

  • Wind
    13mph, 14mph gusts
  • Sea Temp 75°f
  • Ar Temp 70°f
  • Sea Pressure 1011.8mb
  • 9410840 - Santa Monica Pier
  • 9410840 - Santa Monica Pier

More Historic Weather Station data

Upgrade to MSW Pro to gain access to the past 30 days of data for over 8000 Wavebouys and Weather Stations around the globe.

Join Pro

Comparision Forecast

View Surf forecast
   
Ter 08/04 6:54 13 14 mph 1011.8mb 75f 70f
6:48 13 15 mph 1011.9mb 75f 70f
6:42 14 17 mph 1012mb 75f 70f
6:36 16 18 mph 1011.9mb 75f 70f
6:30 18 21 mph 1011.9mb 75f 70f
6:24 18 21 mph 1011.9mb 75f 70f
6:18 17 20 mph 1011.9mb 75f 70f
6:12 18 22 mph 1012mb 75f 70f
6:06 20 22 mph 1012.1mb 75f 69f
5:54 20 22 mph 1012.2mb 75f 70f
5:48 17 20 mph 1012.2mb 75f 70f
5:42 16 17 mph 1012.3mb 75f 71f
5:36 17
mph
1012.4mb 75f 70f
5:30 14 17 mph 1012.5mb 75f 71f
5:24 15 16 mph 1012.6mb 75f 71f
5:18 16 18 mph 1012.6mb 75f 71f
5:12 14 18 mph 1012.6mb 75f 72f
5:06 14 16 mph 1012.6mb 75f 71f
5:00 15 18 mph 1012.6mb 75f 71f
4:48 17 18 mph 1012.6mb 75f 72f
4:42 16 17 mph 1012.6mb 75f 72f
4:36 14 16 mph 1012.6mb 75f 72f
4:30 15 17 mph 1012.6mb 75f 72f
4:24 17 20 mph 1012.6mb 75f 72f
4:18 17 20 mph 1012.6mb 74f 72f
4:12 17 21 mph 1012.6mb 74f 72f
4:06 20 22 mph 1012.6mb 74f 73f
4:00 18 22 mph 1012.6mb 74f 73f
3:54 20 22 mph 1012.6mb 74f 73f
3:48 20 22 mph 1012.7mb 74f 73f
3:42 15 17 mph 1012.7mb 74f 73f
3:36 16 18 mph 1012.7mb 74f 73f
3:30 16 20 mph 1012.8mb 74f 73f
3:24 16 18 mph 1012.9mb 74f 72f
3:18 17 20 mph 1013.1mb 74f 72f
3:12 17 20 mph 1013.2mb 74f 72f
3:06 16 20 mph 1013.2mb 74f 72f
3:00 17 21 mph 1013.3mb 74f 72f
2:54 18 22 mph 1013.4mb 74f 72f
2:48 21 23 mph 1013.5mb 74f 72f
2:42 20 22 mph 1013.6mb 74f 72f
2:36 20 22 mph 1013.6mb 74f 72f
2:30 17 22 mph 1013.7mb 74f 72f
2:24 20 21 mph 1013.8mb 73f 72f
2:18 17 20 mph 1013.8mb 73f 72f
2:12 16 18 mph 1013.8mb 73f 72f
2:06 16 17 mph 1013.8mb 73f 72f
2:00 14 15 mph 1013.9mb 73f 72f
1:54 14 15 mph 1014mb 73f 72f
1:48 13 15 mph 1013.9mb 73f 72f
1:42 13 14 mph 1014mb 73f 71f
1:30 11 14 mph 1014mb 72f 70f
1:24 11 13 mph 1014mb 72f 70f
1:18 10 11 mph 1014mb 71f 70f
1:12 9 10 mph 1013.9mb 70f 70f
1:06 9 11 mph 1013.9mb 70f 70f
1:00 10
mph
1014mb 70f 70f
12:54 10 11 mph 1014mb 69f 70f
12:48 10 11 mph 1014mb 69f 70f
12:42 10 11 mph 1013.9mb 69f 71f
12:36 9 10 mph 1013.9mb 69f 71f
12:30 9
mph
1014mb 69f 71f
12:24 8 9 mph 1014mb 70f 71f
12:18 9
mph
1013.9mb 70f 71f
12:12 8 9 mph 1013.9mb 70f 71f
12:06 9
mph
1014.1mb 70f 71f
12:00 7 8 mph 1014.1mb 70f 71f
11:54 8 9 mph 1014.2mb 70f 71f
11:48 8
mph
1014.2mb 70f 71f
11:42 7 8 mph 1014.1mb 70f 71f
11:30 7 8 mph 1014.2mb 70f 71f
11:24 8
mph
1014.1mb 70f 71f
11:18 8 9 mph 1014.1mb 70f 71f
11:12 7 9 mph 1014.1mb 70f 71f
11:06 8
mph
1014.1mb 70f 71f
10:54 6 7 mph 1014mb 70f 71f
10:48 6
mph
1013.9mb 71f 71f
10:42 6 7 mph 1013.9mb 70f 71f
10:30 6 7 mph 1013.9mb 70f 71f
10:24 7
mph
1013.9mb 71f 71f
10:12 6 7 mph 1013.8mb 70f 71f
10:06 5 6 mph 1013.7mb 71f 71f
9:54 6
mph
1013.7mb 70f 70f
9:48 6
mph
1013.7mb 71f 70f
9:42 6
mph
1013.7mb 71f 70f
9:30 6 7 mph 1013.7mb 70f 70f
9:24 6
mph
1013.7mb 71f 70f
9:18 6
mph
1013.6mb 71f 71f
9:12 6
mph
1013.5mb 71f 70f
9:06 5 6 mph 1013.5mb 71f 70f
9:00 5 6 mph 1013.3mb 72f 71f
8:54 5
mph
1013.3mb 72f 72f
8:48 5
mph
1013.3mb 72f 72f
8:42 5 6 mph 1013.5mb 72f 72f
8:36 3 6 mph 1013.5mb 72f 71f
8:30 5 6 mph 1013.7mb 72f 71f
8:24 5 6 mph 1013.7mb 72f 71f
8:18 5 6 mph 1013.7mb 72f 71f
8:12 5 6 mph 1013.6mb 72f 71f
8:06 3
mph
1013.3mb 72f 73f
8:00 2 3 mph 1013.3mb 72f 75f
7:54 2 3 mph 1013.1mb 72f 74f
7:42 2 3 mph 1012.8mb 72f 73f
7:36  -  2 mph 1012.8mb 72f 74f
7:30 2
mph
1012.7mb 72f 73f
7:24  -  1 mph 1012.8mb 72f 73f
7:18 1
mph
1012.8mb 72f 72f
7:12 1 2 mph 1012.8mb 72f 71f
7:06 2 3 mph 1012.9mb 72f 70f
7:00 2
mph
1012.8mb 72f 70f
6:54 2
mph
1012.6mb 72f 69f
6:48 2 3 mph 1012.6mb 72f 69f
6:42 1 3 mph 1012.6mb 72f 69f
6:36 3
mph
1012.4mb 72f 68f
6:30 3
mph
1012.1mb - 67f
6:24 2
mph
1012.1mb - 68f
6:18 2 3 mph 1012.2mb 72f 67f
6:12 3
mph
1012.2mb 72f 68f
6:06 2
mph
1012.2mb 72f 68f
6:00 1
mph
1012.3mb 72f 68f
5:54  -  1 mph 1012.1mb 72f 68f
5:48  -  mph 1012mb 73f 67f
5:42  -  1 mph 1011.9mb 73f 68f
5:36  -  2 mph 1011.8mb 73f 68f
5:24  -  mph 1011.8mb 73f 67f
5:18 3
mph
1011.7mb 73f 67f
5:12 3 5 mph 1011.7mb 73f 67f
5:06 3
mph
1011.7mb 73f 67f
5:00 2
mph
1011.8mb 73f 68f
4:54  -  2 mph 1011.8mb 72f 68f
4:48 2 3 mph 1011.7mb 72f 68f
4:42 3
mph
1011.7mb 72f 68f
4:36 2
mph
1011.8mb 72f 68f
4:30 2 3 mph 1011.7mb 72f 68f
4:24 3
mph
1011.6mb 72f 68f
4:18 3 5 mph 1011.6mb 72f 69f
4:12 3 5 mph 1011.8mb 72f 69f
4:06 2 3 mph 1011.9mb 72f 69f
4:00 2 3 mph 1011.8mb 72f 69f
3:54 3 5 mph 1011.7mb 72f 69f
3:48 3 6 mph 1011.8mb 72f 69f
3:42 3 5 mph 1011.7mb 72f 69f
3:36 3 5 mph 1011.7mb 72f 69f
3:30 3 5 mph 1011.7mb 72f 69f
3:24 5 6 mph 1011.6mb 72f 69f
3:18 5 6 mph 1011.7mb 72f 68f
3:12 3 6 mph 1011.7mb 72f 68f
3:06 5
mph
1011.7mb 72f 68f
3:00 3
mph
1011.7mb 72f 68f
2:54 3 6 mph 1011.7mb 72f 68f
2:48 5 6 mph 1011.6mb 72f 68f
2:42 3 7 mph 1011.6mb 72f 68f
2:36 6 7 mph 1011.6mb 72f 69f
2:30 5 6 mph 1011.5mb 72f 69f
2:24 5 6 mph 1011.4mb 72f 69f
2:18 3 6 mph 1011.6mb 72f 69f
2:12 3 8 mph 1011.7mb 72f 69f
2:06 7 9 mph 1011.7mb 72f 69f
2:00 8 9 mph 1011.6mb 72f 69f
1:54 7 8 mph 1011.7mb 72f 69f
1:48 8 10 mph 1011.7mb 72f 70f
1:42 7 10 mph 1011.5mb 72f 70f
1:36 7 9 mph 1011.5mb 72f 70f
1:30 5 7 mph 1011.6mb 72f 70f
1:24 5 7 mph 1011.7mb 72f 70f
1:18 5
mph
1011.7mb 72f 70f
1:12 3 5 mph 1011.8mb 72f 70f
1:06 3 5 mph 1011.8mb 72f 70f
1:00 3 5 mph 1011.9mb 72f 70f
12:54 5
mph
1011.9mb 72f 70f
12:48 3 5 mph 1011.9mb 71f 70f
12:42 2 3 mph 1011.8mb 71f 70f
12:36 2 3 mph 1011.8mb 72f 70f
12:30 3 5 mph 1011.8mb 71f 70f
12:24 3
mph
1011.8mb 71f 71f
12:18  -  2 mph 1011.9mb 71f 71f
12:12 2 3 mph 1011.9mb 71f 71f
12:06 2 5 mph 1011.9mb 71f 71f
12:00 3 5 mph 1011.9mb 71f 71f
Seg 08/03 11:54 5 6 mph 1011.8mb 71f 71f
11:48 3 6 mph 1011.9mb 71f 71f
11:42 3 6 mph 1011.8mb 70f 71f
11:36 5 6 mph 1011.7mb 70f 71f
11:30 3 6 mph 1011.8mb 70f 71f
11:24 5 6 mph 1011.7mb 69f 71f
11:18 3 5 mph 1011.7mb 69f 71f
11:06 2 3 mph 1011.8mb 69f 71f
11:00 2 3 mph 1011.9mb 69f 71f
10:54 2 3 mph 1011.9mb 69f 71f
10:48 3 6 mph 1011.8mb 68f 71f
10:42 5 6 mph 1011.8mb 68f 71f
10:36 3 6 mph 1011.8mb 68f 71f
10:30 3 6 mph 1011.8mb 69f 71f
10:24 3 5 mph 1011.8mb 69f 71f
10:18 5 6 mph 1011.7mb 69f 71f
10:12 5 6 mph 1011.7mb 69f 71f
10:06 5 7 mph 1011.6mb 71f 71f
10:00 5 6 mph 1011.6mb 70f 71f
9:54 3 7 mph 1011.7mb 69f 71f
9:48 5
mph
1011.7mb 70f 71f
9:42 6
mph
1011.6mb 70f 71f
9:36 3 6 mph 1011.6mb 70f 71f
9:30 5 6 mph 1011.6mb 70f 71f
9:24 3 6 mph 1011.6mb 71f 71f
9:18 6 8 mph 1011.5mb 71f 71f
9:12 6 7 mph 1011.3mb 72f 71f
9:06 3 7 mph 1011.2mb 73f 71f
9:00 3 7 mph 1011.1mb 73f 70f
8:54 5 8 mph 1011.1mb 73f 70f
8:48 6 8 mph 1011.1mb 74f 70f
8:42 7 10 mph 1011mb 74f 70f
8:36 8 10 mph 1010.9mb 74f 70f
8:30 8 10 mph 1010.9mb 74f 70f
8:24 6 8 mph 1010.9mb 74f 70f
8:18 7 8 mph 1010.9mb 74f 70f
8:12 8
mph
1010.9mb 74f 70f
8:06 7 8 mph 1010.9mb 74f 70f
8:00 8 9 mph 1010.8mb 74f 70f
7:54 8 9 mph 1010.8mb 75f 70f
7:48 6 7 mph 1010.8mb 75f 70f
7:42 5 6 mph 1010.8mb 75f 70f
7:36 3
mph
1011mb 75f 69f
7:30 5 6 mph 1011mb 75f 69f
7:24 5 7 mph 1011mb 75f 69f
7:18 7 9 mph 1011mb 75f 69f
7:12 9 11 mph 1011.1mb 75f 69f
7:00 14 17 mph 1011.2mb 75f 69f
6:54 14 15 mph 1011.2mb 75f 69f
6:48 14 15 mph 1011.1mb 75f 69f
6:42 13 14 mph 1011mb 75f 69f
6:36 13 15 mph 1011.1mb 75f 69f
6:30 14 18 mph 1011.2mb 75f 70f
6:24 16 18 mph 1011.2mb 75f 69f
6:12 15 16 mph 1011.4mb 75f 71f
6:06 14 15 mph 1011.5mb 75f 71f
6:00 11 13 mph 1011.4mb 75f 71f
5:54 13 14 mph 1011.4mb 75f 71f
5:48 11 15 mph 1011.4mb 75f 71f
5:42 14 16 mph 1011.4mb 75f 71f
5:36 15 20 mph 1011.4mb 75f 71f
5:30 17 20 mph 1011.5mb 75f 70f
5:24 18 20 mph 1011.6mb 75f 70f
5:18 15 17 mph 1011.7mb 75f 70f
5:12 14 15 mph 1011.6mb 75f 70f
5:06 14 15 mph 1011.6mb 75f 70f
5:00 13 14 mph 1011.7mb 75f 71f
4:54 13 15 mph 1011.6mb 75f 70f
4:48 13 16 mph 1011.7mb 74f 71f
4:42 14 15 mph 1011.7mb 74f 70f
4:36 14 15 mph 1011.8mb 74f 70f
4:30 14 16 mph 1011.8mb 74f 70f
4:24 14 15 mph 1011.8mb 74f 70f
4:18 14 16 mph 1011.9mb 74f 70f
4:12 15 16 mph 1011.9mb 74f 70f
4:06 15 16 mph 1011.9mb 74f 70f
4:00 15 17 mph 1012mb 74f 70f
3:54 15 16 mph 1012.1mb 74f 70f
3:48 14 15 mph 1012.1mb 74f 70f
3:36 13 14 mph 1012mb 74f 70f
3:30 11 13 mph 1012mb 74f 70f
3:24 11 13 mph 1012.1mb 74f 70f
3:18 10 11 mph 1012.1mb 74f 70f
3:12 10 13 mph 1012.1mb 74f 70f
3:00 11 15 mph 1012.3mb 74f 70f
2:54 14 15 mph 1012.3mb 74f 69f
2:48 13 14 mph 1012.4mb 74f 70f
2:42 13 14 mph 1012.4mb 74f 70f
2:36 14 15 mph 1012.6mb 74f 69f
2:30 11 13 mph 1012.5mb 74f 70f
2:24 13 15 mph 1012.5mb 74f 70f
2:18 14 15 mph 1012.6mb 74f 69f
2:12 14 15 mph 1012.8mb 74f 70f
2:00 14
mph
1012.9mb 74f 69f
1:54 14 15 mph 1013mb 74f 69f
1:48 15 16 mph 1013.1mb 74f 69f
1:42 14 16 mph 1013.1mb 74f 69f
1:36 14 16 mph 1013.2mb 74f 70f
1:30 14 16 mph 1013.3mb 74f 70f
1:24 15 16 mph 1013.2mb 74f 70f
1:12 14 15 mph 1013.1mb 73f 69f
1:06 14 16 mph 1013.1mb 73f 70f
1:00 14 15 mph 1013.3mb 73f 69f
12:54 14 15 mph 1013.3mb 73f 70f
12:48 14 15 mph 1013.3mb 73f 70f
12:42 14 15 mph 1013.3mb 73f 70f
12:36 13 15 mph 1013.4mb 73f 70f
12:30 11 13 mph 1013.2mb 73f 70f
12:24 11 13 mph 1013.2mb 73f 70f
12:18 10 11 mph 1013.3mb 73f 70f
12:12 9 11 mph 1013.1mb 73f 70f
12:06 8 10 mph 1013mb 73f 70f
12:00 9 10 mph 1013.1mb 73f 70f
11:48 10 11 mph 1013.3mb 73f 70f
11:42 10 11 mph 1013.4mb 73f 70f
11:36 10
mph
1013.4mb 73f 69f
11:30 8 10 mph 1013.3mb 73f 70f
11:18 8 9 mph 1013.3mb 73f 70f
11:12 8 9 mph 1013.3mb 73f 70f
11:06 8 9 mph 1013.4mb 73f 70f
11:00 8 9 mph 1013.3mb 73f 70f
10:54 8
mph
1013.3mb 73f 70f
10:48 7 9 mph 1013.2mb 73f 70f
10:36 8 9 mph 1013.2mb 73f 70f
10:24 7
mph
1013.1mb 72f 70f
10:18 7 8 mph 1013.1mb 72f 70f
10:12 7 8 mph 1013.1mb 72f 70f
10:00 6 7 mph 1013.2mb 72f 70f
9:48 7 8 mph 1013.2mb 71f 70f
9:42 8
mph
1013.2mb 71f 70f
9:36 7 8 mph 1013.2mb 71f 70f
9:30 8
mph
1013.2mb 71f 70f
9:12 6 7 mph 1013mb 69f 71f
9:00 5 6 mph 1012.9mb 69f 71f
8:54 5 6 mph 1012.9mb 70f 71f
8:48 3 6 mph 1012.9mb 70f 71f
8:36 2
mph
1012.9mb 70f 72f
8:24 3 5 mph 1012.8mb 71f 72f
8:12 1 5 mph 1012.8mb 71f 74f
8:06 1 3 mph 1012.7mb 71f 73f
8:00 3
mph
1012.7mb 71f 73f
7:54 2 3 mph 1012.6mb 71f 72f
7:48 3 5 mph 1012.4mb 71f 71f
7:42 2 3 mph 1012.4mb 71f 71f
7:36 2 5 mph 1012.4mb 72f 71f
7:30 3 5 mph 1012.5mb 72f 70f
7:18 6
mph
1012.4mb 73f 69f
7:12 6 7 mph 1012.4mb 73f 68f
7:06 6 7 mph 1012.2mb 73f 68f
7:00 5 6 mph 1012.3mb 73f 68f
6:54 5 6 mph 1012.2mb 73f 68f
6:48 5 6 mph 1012.2mb 73f 67f
6:42 5 6 mph 1012.2mb 73f 67f
6:36 6
mph
1012.2mb 73f 67f
6:30 3 5 mph 1012.1mb 73f 67f
6:24 5
mph
1012.2mb 73f 67f
6:18 5
mph
1012.2mb 73f 68f
6:12 3
mph
1012.2mb 73f 68f
6:06 3 5 mph 1012.1mb 73f 68f
6:00 3 5 mph 1012.1mb 73f 67f
5:54 3 5 mph 1012.2mb 73f 67f
5:48 5
mph
1012.2mb 73f 67f
5:42 3 5 mph 1012mb 73f 67f
5:36 3
mph
1012mb 72f 67f
5:30 2 3 mph 1011.9mb 72f 67f
5:24 2
mph
1011.8mb 72f 67f
5:18  -  mph 1011.9mb 72f 67f
5:12 2
mph
1011.8mb 72f 67f
5:06 2
mph
1011.8mb 72f 67f
5:00 2
mph
1011.8mb 72f 68f
4:54 2 3 mph 1011.7mb 73f 68f
4:48 2 3 mph 1011.7mb 72f 67f
4:42 3
mph
1011.8mb 72f 68f
4:36  -  1 mph 1011.8mb 72f 68f
4:30  -  1 mph 1011.7mb 72f 68f
4:24 1 2 mph 1011.7mb 72f 68f
4:18 1 2 mph 1011.6mb 73f 68f
4:12 2 3 mph 1011.6mb 73f 68f
4:06 2 3 mph 1011.6mb 73f 68f
4:00 2 3 mph 1011.4mb 73f 68f
3:54 3
mph
1011.4mb 73f 68f
3:48 2 3 mph 1011.5mb 73f 68f
3:42 3 5 mph 1011.5mb 73f 68f
3:36 3 5 mph 1011.5mb 73f 68f
3:30 3 5 mph 1011.5mb 73f 69f
3:24 3 6 mph 1011.4mb 73f 69f
3:18 5 6 mph 1011.4mb 73f 69f
3:12 5 6 mph 1011.5mb 73f 69f
3:06 5
mph
1011.5mb 73f 69f
3:00 3 5 mph 1011.5mb 73f 69f
2:54 5
mph
1011.6mb 73f 69f
2:48 5 6 mph 1011.5mb 73f 69f
2:42 6 7 mph 1011.5mb 73f 69f
2:36 6 8 mph 1011.5mb 73f 69f
2:30 6 8 mph 1011.5mb 73f 69f
2:24 6 7 mph 1011.6mb 73f 69f
2:18  -  mph 1011.7mb 73f 69f
2:12 6 8 mph 1011.8mb 73f 70f
2:06 5 7 mph 1011.8mb 73f 69f
2:00  -  mph 1011.7mb 73f 69f
1:54 7 8 mph 1011.7mb 73f 69f
1:48 7 9 mph 1011.6mb 73f 69f
1:42 7 9 mph 1011.5mb 73f 69f
1:36 7 11 mph 1011.3mb 73f 69f
1:30 8 9 mph 1011.4mb 73f 69f
1:24 7 8 mph 1011.5mb 73f 69f
1:18 7 8 mph 1011.5mb 73f 69f
1:12 6 8 mph 1011.4mb 73f 69f
1:06 6 9 mph 1011.3mb 73f 69f
1:00 6 8 mph 1011.3mb 72f 69f
12:54 6 8 mph 1011.4mb 72f 69f
12:48 6 8 mph 1011.3mb 72f 69f
12:42 6 9 mph 1011.2mb 72f 70f
12:36 6 8 mph 1011.2mb 72f 70f
12:30 7 9 mph 1011.2mb 72f 70f
12:24 8 9 mph 1011.1mb 71f 70f
12:18 6 9 mph 1011mb 71f 70f
12:12 6 8 mph 1010.9mb 71f 70f
12:06 6 8 mph 1011mb 71f 70f
12:00 7 8 mph 1011.1mb 71f 70f
Dom 08/02 11:54 5 8 mph 1011.2mb 71f 70f
11:48 8 10 mph 1011.1mb 70f 70f
11:36 6 9 mph 1011.1mb 69f 70f
11:30 7 9 mph 1011.1mb 69f 70f
11:24 7 8 mph 1011.1mb 69f 69f
11:18 7 9 mph 1011.1mb 69f 69f
11:12 7 8 mph 1011.1mb 69f 70f
11:06 8 9 mph 1011.1mb 69f 70f
11:00 8 9 mph 1011.1mb 68f 70f
10:54 7 9 mph 1011.2mb 68f 70f
10:48 8 9 mph 1011.1mb 67f 70f
10:42 7 8 mph 1011.1mb 67f 70f
10:36 8
mph
1011.1mb 66f 71f
10:30 3 5 mph 1011.1mb 65f 70f
10:24 3
mph
1011.1mb 65f 70f
10:18 2 3 mph 1011.1mb 65f 70f
10:12  -  1 mph 1011.1mb 65f 69f
10:06  -  1 mph 1011.1mb 65f 69f
10:00 1 3 mph 1011.1mb 65f 70f
9:54 2 3 mph 1011.1mb 66f 70f
9:48 3 5 mph 1011.1mb 66f 70f
9:42 3 5 mph 1011mb 66f 70f
9:36 3 5 mph 1011mb 66f 69f
9:30 3 5 mph 1010.9mb 66f 70f
9:24 5
mph
1010.7mb 66f 70f
9:18 3 6 mph 1010.7mb 66f 70f
9:12 5 6 mph 1010.6mb 66f 70f
9:06 6 7 mph 1010.6mb 66f 70f
9:00 7 8 mph 1010.5mb 67f 70f
8:54 8 10 mph 1010.5mb 67f 70f
8:48 10 11 mph 1010.5mb 67f 69f
8:42 10 13 mph 1010.4mb 68f 69f
8:36 10 14 mph 1010.4mb 69f 69f
8:30 13 15 mph 1010.4mb 70f 69f
8:24 16 17 mph 1010.4mb 71f 69f
8:18 14 16 mph 1010.3mb 73f 70f
8:12 14 15 mph 1010.2mb 73f 70f
8:06 5 7 mph 1010.2mb 73f 71f
8:00 7 8 mph 1010.1mb 73f 71f
7:54 8 9 mph 1010.1mb 74f 70f
7:48 6 8 mph 1010.1mb 74f 70f
7:42 6 7 mph 1010mb 74f 70f
7:36 7 8 mph 1010mb 74f 71f
7:30 6 7 mph 1010mb 74f 71f
7:24 7 9 mph 1010.1mb 74f 71f
7:18 7 9 mph 1010.1mb 74f 71f
7:12 8 9 mph 1010.2mb 74f 71f
7:06 8 10 mph 1010.3mb 74f 71f
7:00 9 10 mph 1010.3mb 74f 71f
6:54 9 11 mph 1010.3mb 74f 70f
6:48 9 10 mph 1010.3mb 74f 70f
6:42 8 10 mph 1010.2mb 74f 71f
6:36 8 9 mph 1010.2mb 74f 70f
6:30 8 9 mph 1010.3mb 74f 70f
6:24 9
mph
1010.2mb 74f 70f
6:18 8 9 mph 1010.3mb 74f 70f
6:12 8 10 mph 1010.4mb 74f 70f
6:06 9 10 mph 1010.4mb 74f 70f
6:00 9 11 mph 1010.4mb 74f 69f
5:54 11 13 mph 1010.5mb 74f 69f
5:48 11 13 mph 1010.5mb 74f 69f
5:42 13 14 mph 1010.5mb 74f 69f
5:36 13 15 mph 1010.6mb 74f 69f
5:30 14 16 mph 1010.7mb 74f 69f
5:24 15 16 mph 1010.7mb 74f 69f
5:18 14 16 mph 1010.7mb 74f 69f
5:12 15 16 mph 1010.8mb 74f 69f
5:06 15 16 mph 1010.8mb 74f 70f
5:00 15 16 mph 1010.9mb 74f 69f
4:54 14 15 mph 1010.7mb 74f 69f
4:48 14 15 mph 1010.7mb 74f 69f
4:42 14 15 mph 1010.8mb 74f 69f
4:36 13 14 mph 1010.8mb 74f 70f
4:30 13 14 mph 1010.9mb 74f 70f
4:24 13 14 mph 1010.9mb 74f 69f
4:18 13 14 mph 1011.1mb 74f 70f
4:12 13 15 mph 1011.3mb 74f 70f
4:06 13 15 mph 1011.3mb 74f 70f
4:00 14
mph
1011.3mb 74f 70f
3:54 11 14 mph 1011.5mb 74f 70f
3:48 14 15 mph 1011.5mb 74f 70f
3:42 13 15 mph 1011.6mb 74f 70f
3:36 14 15 mph 1011.7mb 74f 70f
3:30 13 15 mph 1011.8mb 74f 70f
3:24 14 16 mph 1011.9mb 74f 70f
3:18 14 16 mph 1011.9mb 74f 70f
3:12 14 15 mph 1012mb 74f 70f
3:06 14 15 mph 1011.9mb 74f 70f
2:54 14 15 mph 1012mb 74f 70f
2:48 14 15 mph 1012mb 74f 70f
2:42 13 14 mph 1012.1mb 74f 70f
2:36 14 15 mph 1012.1mb 74f 71f
2:30 13 14 mph 1012.2mb 74f 71f
2:18 11 13 mph 1012.3mb 73f 71f
2:12 10 13 mph 1012.4mb 73f 70f
2:06 10 11 mph 1012.4mb 73f 70f
1:54 9 11 mph 1012.6mb 73f 71f
1:36 9 11 mph 1012.6mb 73f 71f
1:30 9 10 mph 1012.6mb 73f 70f
1:24 9 10 mph 1012.7mb 73f 70f
1:18 8 9 mph 1012.7mb 73f 70f
1:12 8 9 mph 1012.8mb 73f 70f
1:06 7 9 mph 1012.9mb 73f 70f
12:54 7 8 mph 1013mb 73f 70f
12:48 7 9 mph 1013.1mb 73f 70f
12:42 7 9 mph 1013.1mb 73f 70f
12:30 7 8 mph 1013.2mb 72f 70f
12:24 6 8 mph 1013.2mb 72f 70f
12:18 6 8 mph 1013.1mb 72f 70f
12:12 6 7 mph 1013.2mb 72f 70f
12:06 6 8 mph 1013.2mb 72f 70f
11:54 7 8 mph 1013.3mb 71f 70f
11:42 7 8 mph 1013.3mb 70f 70f
11:36 7 9 mph 1013.3mb 70f 70f
11:30 7 8 mph 1013.3mb 70f 70f
11:24 8 9 mph 1013.4mb 69f 70f
11:18 7 8 mph 1013.4mb 69f 70f
11:06 7 8 mph 1013.4mb 69f 70f
10:54 7 8 mph 1013.5mb 69f 70f
10:48 6 7 mph 1013.5mb 69f 70f
10:42 6 7 mph 1013.6mb 69f 70f
10:30 5 7 mph 1013.6mb 69f 70f
10:24 6 7 mph 1013.6mb 69f 70f
10:18 6 7 mph 1013.6mb 69f 70f
10:12 6 7 mph 1013.6mb 69f 70f
10:06 6
mph
1013.7mb 68f 70f
10:00 6 7 mph 1013.6mb 69f 70f
9:54 7 8 mph 1013.6mb 68f 70f
9:48 7 8 mph 1013.6mb 68f 70f
9:42 6 8 mph 1013.6mb 68f 70f
9:36 5 7 mph 1013.6mb 68f 70f
9:30 3 5 mph 1013.6mb 68f 70f
9:24 2 3 mph 1013.5mb 69f 70f
9:18 1 3 mph 1013.5mb 69f 70f
9:12 1 2 mph 1013.5mb 69f 71f
9:06 1 3 mph 1013.5mb 69f 70f
8:54 3 5 mph 1013.5mb 69f 70f
8:48 3 6 mph 1013.5mb 69f 70f
8:42 3 7 mph 1013.4mb 69f 70f
8:36 5 7 mph 1013.4mb 70f 69f
8:30 5 7 mph 1013.4mb 69f 69f
8:24 2 6 mph 1013.5mb 70f 69f
8:18 5 7 mph 1013.5mb 70f 69f
8:12 6 7 mph 1013.4mb 70f 69f
8:06 5 7 mph 1013.4mb 70f 69f
8:00 6
mph
1013.4mb 70f 69f
7:54 5 6 mph 1013.3mb 70f 69f
7:48 3
mph
1013.3mb 70f 69f
7:42 2 3 mph 1013.2mb 71f 69f
7:36 2 5 mph 1013.2mb 71f 69f
7:30 3 6 mph 1013.1mb 72f 69f
7:24 3 5 mph 1013mb 72f 69f
7:18 5 6 mph 1013mb 72f 68f
7:06 3 5 mph 1012.8mb 72f 68f
7:00 2 6 mph 1012.8mb 72f 68f
6:54 2 5 mph 1012.8mb 72f 68f
6:48 3 5 mph 1012.7mb 72f 68f
6:42 2 3 mph 1012.7mb 72f 68f
6:36 2 3 mph 1012.6mb 72f 68f
6:30 3
mph
1012.4mb 72f 68f
6:24 2 5 mph 1012.4mb 72f 68f
6:18 3 5 mph 1012.3mb 72f 68f
6:12 2 5 mph 1012.3mb 72f 68f
6:06 5 6 mph 1012.3mb 72f 68f
6:00 3 6 mph 1012.3mb 72f 68f
5:54 3 5 mph 1012.3mb 72f 67f
5:48 5
mph
1012.2mb 72f 67f
5:42 5 6 mph 1012.2mb 72f 67f
5:36 5
mph
1012.2mb 72f 67f
5:30 5
mph
1012.2mb 72f 67f
5:24 5 6 mph 1012.2mb 72f 67f
5:18 5 6 mph 1012.2mb 72f 67f
5:12 2 3 mph 1012.2mb 72f 68f
5:06 2 3 mph 1012.1mb 72f 68f
5:00 2 3 mph 1012.1mb 72f 68f
4:54 2 3 mph 1012.1mb 72f 68f
4:48 2 3 mph 1012.1mb 72f 69f
4:42 1 2 mph 1012.1mb 72f 68f
4:36 1
mph
1012.1mb 72f 68f
4:30 1
mph
1012.2mb 72f 68f
4:24  -  1 mph 1012.2mb 72f 68f
4:18  -  mph 1012.2mb 72f 68f
4:12  -  mph 1012.2mb 72f 68f
4:06 1 3 mph 1012.2mb 72f 69f
4:00 2 3 mph 1012.2mb 72f 69f
3:48 1 3 mph 1012.1mb 73f 69f
3:42 3 6 mph 1012.1mb 73f 69f
3:36 5 6 mph 1012.2mb 73f 69f
3:30 5 6 mph 1012.1mb 73f 69f
3:24 5 6 mph 1012.2mb 72f 69f
3:18 3
mph
1012.2mb 73f 69f
3:12 3 5 mph 1012.3mb 73f 69f
3:06 3 5 mph 1012.2mb 73f 69f
3:00 2 5 mph 1012.3mb 73f 69f
2:54 5 6 mph 1012.4mb 73f 69f
2:48 6
mph
1012.3mb 73f 69f
2:42 2 5 mph 1012.4mb 73f 69f
2:36 5 6 mph 1012.4mb 73f 69f
2:30 6
mph
1012.5mb 73f 69f
2:24 5 8 mph 1012.5mb 73f 69f
2:18 7 8 mph 1012.4mb 73f 69f
2:12 6 7 mph 1012.4mb 73f 70f
2:06 6 8 mph 1012.4mb 73f 69f
2:00 6 7 mph 1012.5mb 73f 69f
1:54 3 6 mph 1012.5mb 73f 69f
1:48 6 7 mph 1012.5mb 73f 69f
1:42 5 6 mph 1012.5mb 73f 69f
1:36 2 3 mph 1012.6mb 73f 69f
1:30 2 6 mph 1012.6mb 73f 69f
1:24 5 6 mph 1012.7mb 73f 69f
1:18 2 5 mph 1012.7mb 73f 69f
1:12 2 7 mph 1012.8mb 73f 69f
1:06 5 6 mph 1012.8mb 73f 69f
1:00 5 6 mph 1012.9mb 73f 69f
12:54 5 6 mph 1012.9mb 73f 69f
12:48 3 7 mph 1012.9mb 73f 70f
12:42 6 7 mph 1012.9mb 73f 69f
12:36 3 5 mph 1013mb 73f 69f
12:30 5 6 mph 1013mb 73f 69f
12:24 6
mph
1013mb 73f 69f
12:18 5 6 mph 1013mb 73f 69f
12:12 3 5 mph 1013mb 73f 69f
12:06 5
mph
1013mb 73f 69f
12:00 5 6 mph 1013mb 73f 69f
Sáb 08/01 11:54 3 5 mph 1013.1mb 73f 69f
11:48  -  mph 1013.2mb 73f -
11:42 5 6 mph 1013.2mb 72f -
11:36 5
mph
1013.2mb 72f -
11:30 5
mph
1013.2mb 72f 69f
11:24 5 6 mph 1013.2mb 72f 69f
11:18 5 6 mph 1013.2mb 72f 70f
11:12 5
mph
1013.2mb 72f 70f
11:06 5
mph
1013.2mb 72f 70f
11:00 2
mph
1013.3mb 72f 69f
10:54 1 2 mph 1013.3mb 71f 69f
10:48 1 2 mph 1013.3mb 71f 69f
10:42 1 2 mph 1013.3mb 71f 69f
10:36 1 2 mph 1013.2mb 70f 70f
10:30 2 3 mph 1013.2mb 69f 70f
10:24 3
mph
1013.2mb 69f 70f
10:18 3
mph
1013.2mb 69f 70f
10:12 5
mph
1013.2mb 69f 70f
10:06 2 3 mph 1013.3mb 70f 70f
10:00 3 5 mph 1013.3mb 69f 69f
9:54 5 6 mph 1013.2mb 69f 70f
9:48 5 6 mph 1013.2mb 69f 69f
9:42 6 8 mph 1013.2mb 69f 69f
9:36 6 7 mph 1013.2mb 69f 70f
9:30 7 8 mph 1013.1mb 69f 70f
9:24 7 9 mph 1013.2mb 69f 70f
9:18 8 9 mph 1013.1mb 69f 70f
9:12 8 10 mph 1013mb 69f 70f
9:06 9 11 mph 1013mb 69f 70f
9:00 10 11 mph 1012.9mb 69f 69f
8:54 10 13 mph 1012.9mb 69f 70f
8:48 10 13 mph 1012.8mb 69f -
8:42 10 13 mph 1012.7mb 69f -
8:36 10 13 mph 1012.7mb 69f -
8:30 9 11 mph 1012.7mb 70f 70f
8:24 10 11 mph 1012.6mb 70f 70f
8:18 10 11 mph 1012.5mb 71f 69f
8:12 9 13 mph 1012.5mb 71f 70f
8:06 11 13 mph 1012.5mb 71f 69f
8:00 10 13 mph 1012.6mb 71f 70f
7:54 10 11 mph 1012.5mb 71f 69f
7:48 10 11 mph 1012.5mb 72f 69f
7:42 10 13 mph 1012.5mb 72f 69f
7:36 11 14 mph 1012.4mb 72f 69f
7:30 11 13 mph 1012.4mb 73f 69f
7:24 13 15 mph 1012.3mb 73f 69f
7:18 14 16 mph 1012.3mb 73f 69f
7:12 15 17 mph 1012.4mb 73f 69f
7:06 15 16 mph 1012.3mb 73f 69f
7:00 16 17 mph 1012.3mb 74f 69f
6:54 15 17 mph 1012.3mb 74f 69f
6:48 16 17 mph 1012.3mb 74f 69f
6:42 14 17 mph 1012.3mb 74f 69f
6:36 15 17 mph 1012.3mb 74f 69f
6:30 15 16 mph 1012.3mb 74f 69f
6:24 14 16 mph 1012.2mb 74f 69f
6:18 14 15 mph 1012.3mb 74f 69f
6:12 15
mph
1012.3mb 74f 69f
6:06 14 15 mph 1012.3mb 74f 70f
6:00 14 15 mph 1012.2mb 74f 69f
5:54 14 15 mph 1012.3mb 74f 70f
5:48 14 15 mph 1012.3mb 74f 70f
5:42 14 15 mph 1012.4mb 74f 70f
5:36 14 15 mph 1012.4mb 74f 70f
5:30 13 14 mph 1012.4mb 74f 70f
5:24 13 14 mph 1012.4mb 74f 70f
5:18 13 14 mph 1012.5mb 74f 70f
5:12 11 14 mph 1012.6mb 74f 70f
5:06 13 14 mph 1012.6mb 74f 70f
5:00 11 14 mph 1012.7mb 74f 70f
4:54 11 14 mph 1012.7mb 74f 70f
4:48 11 14 mph 1012.7mb 74f 70f
4:42 13 14 mph 1012.7mb 74f 70f
4:36 14 15 mph 1012.8mb 74f 70f
4:30 14
mph
1012.8mb 74f 70f
4:24 14
mph
1012.8mb 74f 70f
4:18 13 14 mph 1012.9mb 74f 70f
4:12 13 14 mph 1012.9mb 74f 70f
4:06 13 14 mph 1012.9mb 74f 70f
4:00 10 13 mph 1013mb 74f 71f
3:54 11 13 mph 1013mb 74f 70f
3:48 10 13 mph 1013mb 74f 70f
3:42 11 13 mph 1013.1mb 74f 70f
3:36 11 13 mph 1013.1mb 74f 70f
3:30 13 14 mph 1013.2mb 74f 70f
3:24 11 13 mph 1013.2mb 74f 69f
3:18 11 13 mph 1013.3mb 74f 70f
3:12 11 13 mph 1013.4mb 74f 70f
3:06 11 13 mph 1013.4mb 74f 69f
3:00 10 13 mph 1013.5mb 73f 70f
2:54 11 13 mph 1013.4mb 73f 69f
2:48 11 13 mph 1013.5mb 73f 69f
2:42 10 13 mph 1013.6mb 73f 69f
2:36 10 14 mph 1013.7mb 73f 69f
2:30 11 13 mph 1013.7mb 73f 69f
2:24 11 13 mph 1013.8mb 74f 69f
2:18 11 13 mph 1013.8mb 74f 69f
2:12 11 13 mph 1013.9mb 74f 69f
2:06 10 13 mph 1013.9mb 74f 69f
2:00 10 13 mph 1013.9mb 73f 69f
1:54 11 13 mph 1014mb 73f 69f
1:48 10 13 mph 1014mb 73f 69f
1:36 10 13 mph 1014.2mb 73f 69f
1:12 9 10 mph 1014.4mb 73f 69f
1:06 9 11 mph 1014.6mb 73f 69f
1:00 10 11 mph 1014.6mb 73f 69f
12:48 9 10 mph 1014.7mb 72f 69f
12:42 9 10 mph 1014.7mb 72f 69f
12:36 10 11 mph 1014.8mb 72f 69f
12:30 9 10 mph 1014.8mb 72f 69f
12:24 10 11 mph 1014.9mb 72f 69f
12:12 9 11 mph 1015mb 72f 69f
12:00 13
mph
1015mb 72f 69f
11:54 11 13 mph 1015mb 71f 69f
11:48 10 11 mph 1015mb 71f 69f
11:42 10
mph
1015.1mb 71f 69f
11:36 9 10 mph 1015.1mb 71f 69f
11:30 9 10 mph 1015.1mb 71f 69f
11:24 8 9 mph 1015.2mb 70f 69f
11:18 8 9 mph 1015.2mb 70f 69f
11:12 8 9 mph 1015.2mb 69f 69f
11:06 7 9 mph 1015.3mb 68f 69f
11:00 8 10 mph 1015.3mb 67f 69f
10:54 9 10 mph 1015.3mb 66f 69f
10:48 9
mph
1015.3mb 66f 69f
10:42 8 9 mph 1015.4mb 66f 69f
10:36 7 8 mph 1015.4mb 66f 69f
10:30 5 7 mph 1015.4mb 66f 69f
10:24 5 7 mph 1015.4mb 68f 69f
10:18 6 7 mph 1015.4mb 68f 69f
10:12 6
mph
1015.4mb 67f 69f
10:06 5 7 mph 1015.5mb 67f 69f
10:00 6 7 mph 1015.5mb 68f 69f
9:54 5 6 mph 1015.6mb 68f 69f
9:48 5 6 mph 1015.7mb 68f 69f
9:42 5 6 mph 1015.7mb 69f 69f
9:30 5 6 mph 1015.7mb 69f 69f
9:24 5 6 mph 1015.8mb 69f 69f
9:18 5
mph
1015.8mb 69f 69f
9:12 3 5 mph 1015.8mb 69f 69f
9:06 2 5 mph 1015.8mb 69f 69f
9:00 6 7 mph 1015.8mb 70f 69f
8:54 5 6 mph 1015.7mb 69f 69f
8:48 3 6 mph 1015.8mb 69f 69f
8:42 6 7 mph 1015.8mb 69f 68f
8:36 6 7 mph 1015.8mb 69f 69f
8:30 5 6 mph 1015.7mb 69f 69f
8:24 6 7 mph 1015.7mb 69f 69f
8:18 2 5 mph 1015.6mb 69f 69f
8:12 5 6 mph 1015.6mb 69f 69f
8:06 3 5 mph 1015.6mb 69f 69f
8:00 2 5 mph 1015.6mb 69f 69f
7:54 3 6 mph 1015.5mb 70f 69f
7:48 1 3 mph 1015.5mb 70f 69f
7:42 2 5 mph 1015.5mb 70f 69f
7:36 2 3 mph 1015.5mb 71f 68f
7:30 1 2 mph 1015.5mb 71f 68f
7:24 3 6 mph 1015.5mb 71f 68f
7:18 2 5 mph 1015.5mb 71f 68f
7:12 2
mph
1015.5mb 71f 68f
7:06 2 6 mph 1015.5mb 71f 68f
7:00 3 5 mph 1015.5mb 71f 68f
6:54 1 5 mph 1015.4mb 71f 68f
6:48 2 5 mph 1015.3mb 72f 68f
6:42  -  2 mph 1015.3mb 72f 68f
6:36 1 2 mph 1015.2mb 72f 68f
6:30 1 6 mph 1015.1mb 72f 68f
6:24 2 3 mph 1015.1mb 72f 68f
6:18 2 5 mph 1015mb 72f 68f
6:12 3 6 mph 1015mb 72f 68f
6:06 5 6 mph 1014.9mb 72f 68f
6:00 1 3 mph 1014.9mb 72f 68f
5:54 2 3 mph 1014.9mb 72f 68f
5:48 3 5 mph 1014.8mb 72f 68f
5:42 3 5 mph 1014.8mb 72f 68f
5:36 2 5 mph 1014.7mb 72f 68f
5:30 2 5 mph 1014.7mb 72f 67f
5:24 5 6 mph 1014.7mb 72f 67f
5:18 3 6 mph 1014.7mb 72f 67f
5:12 3 5 mph 1014.7mb 72f 68f
5:06 3 5 mph 1014.7mb 72f 68f
5:00 2 5 mph 1014.7mb 72f 67f
4:54 5 6 mph 1014.7mb 72f 67f
4:48 3 6 mph 1014.7mb 72f 67f
4:42 5 6 mph 1014.7mb 72f 67f
4:36 5
mph
1014.8mb 72f 67f
4:30 3 6 mph 1014.8mb 72f 67f
4:24 2 5 mph 1014.8mb 72f 67f
4:18 3 5 mph 1014.7mb 72f 67f
4:12 1 2 mph 1014.7mb 72f 67f
4:06 3 5 mph 1014.8mb 72f 67f
4:00 2 5 mph 1014.8mb 72f 67f
3:54 5 6 mph 1014.8mb 72f 67f
3:48 6 7 mph 1014.8mb 72f 67f
3:42 7 8 mph 1014.8mb 72f 67f
3:36 2 3 mph 1014.8mb 72f 67f
3:30 2 3 mph 1014.8mb 72f 67f
3:24  -  2 mph 1014.7mb 71f 67f
3:18  -  3 mph 1014.7mb 72f 67f
3:12  -  2 mph 1014.7mb 72f 67f
3:06  -  3 mph 1014.8mb 72f 67f
3:00 1 5 mph 1014.8mb 72f 67f
2:54 3 5 mph 1014.8mb 72f 67f
2:48 2
mph
1014.9mb 72f 67f